Time;durP1;ratioP1;P1;durP2;ratioP2;P2;SDS_P1;SDS_P2;PMS_P1;PMS_P2;Temp;Humidity;BMP_temperature;BMP_pressure;BME280_temperature;BME280_humidity;BME280_pressure;Samples;Min_cycle;Max_cycle;Signal;HPM_P1;HPM_P2
2022/10/17 00:00:42;;;;;;;9.55;5.47;;;12.50;99.90;;;;;;5068078;28;20053;-67
2022/10/17 00:03:08;;;;;;;9.68;5.20;;;12.50;99.90;;;;;;5066834;28;20052;-68
2022/10/17 00:05:42;;;;;;;14.63;4.95;;;12.50;99.90;;;;;;5087210;28;20040;-68
2022/10/17 00:08:10;;;;;;;11.35;4.20;;;12.60;99.90;;;;;;5073668;28;20045;-68
2022/10/17 00:10:35;;;;;;;8.10;4.38;;;12.60;99.90;;;;;;5088563;28;20040;-68
2022/10/17 00:13:01;;;;;;;11.02;6.00;;;12.60;99.90;;;;;;5086582;28;20051;-68
2022/10/17 00:15:27;;;;;;;10.32;4.80;;;12.70;99.90;;;;;;5089392;28;20044;-68
2022/10/17 00:17:53;;;;;;;8.20;4.50;;;12.70;99.90;;;;;;5069102;28;20052;-68
2022/10/17 00:20:18;;;;;;;12.40;5.70;;;12.70;99.90;;;;;;5085063;28;20056;-68
2022/10/17 00:22:44;;;;;;;9.10;4.32;;;12.80;99.90;;;;;;5084071;28;20048;-68
2022/10/17 00:25:10;;;;;;;6.28;4.38;;;12.80;99.90;;;;;;5071137;28;20048;-67
2022/10/17 00:27:37;;;;;;;10.68;4.50;;;12.70;99.90;;;;;;5069100;28;20045;-67
2022/10/17 00:30:05;;;;;;;10.82;5.00;;;12.70;99.90;;;;;;5070601;28;20049;-67
2022/10/17 00:32:30;;;;;;;9.75;4.60;;;12.70;99.90;;;;;;5085380;28;20045;-67
2022/10/17 00:34:57;;;;;;;8.95;5.00;;;12.70;99.90;;;;;;5086976;28;20058;-67
2022/10/17 00:37:23;;;;;;;10.63;5.20;;;12.70;99.90;;;;;;5063655;28;20048;-67
2022/10/17 00:39:49;;;;;;;11.63;5.13;;;12.80;99.90;;;;;;5084433;28;20045;-67
2022/10/17 00:42:15;;;;;;;15.25;5.28;;;12.80;99.90;;;;;;5068687;28;20115;-67
2022/10/17 00:44:40;;;;;;;11.25;5.13;;;12.90;99.90;;;;;;5069729;28;20047;-67
2022/10/17 00:47:12;;;;;;;11.05;5.22;;;12.80;99.90;;;;;;5067400;28;20048;-67
2022/10/17 00:49:38;;;;;;;6.13;5.43;;;12.90;99.90;;;;;;5084466;28;20518;-67
2022/10/17 00:52:10;;;;;;;8.90;5.43;;;12.90;99.90;;;;;;5068698;28;20049;-67
2022/10/17 00:54:43;;;;;;;14.60;5.40;;;12.90;99.90;;;;;;5087724;28;20052;-67
2022/10/17 00:57:09;;;;;;;11.13;5.75;;;13.00;99.90;;;;;;5070398;28;20096;-67
2022/10/17 00:59:38;;;;;;;15.40;6.32;;;12.90;99.90;;;;;;5071149;28;20078;-67
2022/10/17 01:02:17;;;;;;;11.55;5.78;;;13.00;99.90;;;;;;5066490;28;20044;-67
2022/10/17 01:04:46;;;;;;;13.50;6.15;;;13.00;99.90;;;;;;5069487;28;20040;-67
2022/10/17 01:07:12;;;;;;;7.40;5.40;;;13.00;99.90;;;;;;5080646;28;20119;-67
2022/10/17 01:09:38;;;;;;;9.30;5.15;;;13.00;99.90;;;;;;5065912;28;20810;-68
2022/10/17 01:12:22;;;;;;;10.07;5.50;;;13.00;99.90;;;;;;5080851;28;20041;-67
2022/10/17 01:15:38;;;;;;;9.45;5.70;;;13.00;99.90;;;;;;5067487;28;20048;-67
2022/10/17 01:18:31;;;;;;;10.13;5.45;;;13.00;99.90;;;;;;5029627;28;20053;-67
2022/10/17 01:21:38;;;;;;;8.32;5.30;;;13.00;99.90;;;;;;5026682;28;20056;-69
2022/10/17 01:24:13;;;;;;;16.13;6.80;;;13.00;99.90;;;;;;5018425;28;20132;-68
2022/10/17 01:27:15;;;;;;;11.07;6.50;;;12.90;99.90;;;;;;5017400;28;20045;-67
2022/10/17 01:30:07;;;;;;;13.98;6.28;;;13.00;99.90;;;;;;5027273;28;20061;-67
2022/10/17 01:32:45;;;;;;;9.60;6.38;;;13.00;99.90;;;;;;5043697;28;20049;-67
2022/10/17 01:35:34;;;;;;;12.75;6.65;;;13.10;99.90;;;;;;5043257;28;20068;-67
2022/10/17 01:38:11;;;;;;;12.57;7.13;;;13.00;99.90;;;;;;5032171;28;20051;-67
2022/10/17 01:40:48;;;;;;;10.93;6.60;;;13.10;99.90;;;;;;5023470;28;20060;-67
2022/10/17 01:43:45;;;;;;;12.45;6.53;;;13.10;99.90;;;;;;5025259;28;20105;-67
2022/10/17 01:46:25;;;;;;;10.55;6.75;;;13.10;99.90;;;;;;5037154;28;20049;-67
2022/10/17 01:48:52;;;;;;;13.48;6.82;;;13.00;99.90;;;;;;5044689;28;20054;-68
2022/10/17 01:51:27;;;;;;;13.55;6.70;;;13.00;99.90;;;;;;5040211;28;20203;-67
2022/10/17 01:54:04;;;;;;;9.38;6.30;;;13.00;99.90;;;;;;5053822;28;20056;-68
2022/10/17 01:56:31;;;;;;;10.43;6.05;;;13.00;99.90;;;;;;5085704;28;20075;-67
2022/10/17 01:59:11;;;;;;;9.15;6.35;;;13.00;99.90;;;;;;5064504;28;20045;-68
2022/10/17 02:01:40;;;;;;;7.18;6.15;;;13.00;99.90;;;;;;5068392;28;20056;-68
2022/10/17 02:04:08;;;;;;;11.57;5.80;;;13.00;99.90;;;;;;5071880;28;20052;-67
2022/10/17 02:06:35;;;;;;;8.68;6.57;;;13.10;99.90;;;;;;5081929;28;20052;-67
2022/10/17 02:09:14;;;;;;;8.40;5.80;;;13.00;99.90;;;;;;5080477;28;20036;-67
2022/10/17 02:11:40;;;;;;;8.87;6.57;;;13.10;99.90;;;;;;5087757;28;20044;-67
2022/10/17 02:14:22;;;;;;;11.52;7.32;;;13.00;99.90;;;;;;5086236;28;20289;-67
2022/10/17 02:17:17;;;;;;;12.30;7.05;;;13.00;99.90;;;;;;5086770;28;20041;-67
2022/10/17 02:20:08;;;;;;;10.60;6.43;;;13.10;99.90;;;;;;5066531;28;20587;-67
2022/10/17 02:22:37;;;;;;;10.43;6.25;;;13.00;99.90;;;;;;5072618;28;20053;-67
2022/10/17 02:25:19;;;;;;;9.63;6.43;;;13.00;99.90;;;;;;5086612;28;20055;-67
2022/10/17 02:27:54;;;;;;;8.50;6.30;;;12.90;99.90;;;;;;5070434;28;20056;-67
2022/10/17 02:30:40;;;;;;;6.88;6.18;;;12.90;99.90;;;;;;5066972;28;20083;-67
2022/10/17 02:33:35;;;;;;;9.82;7.07;;;12.90;99.90;;;;;;5066407;28;20071;-67
2022/10/17 02:36:07;;;;;;;9.70;7.35;;;12.90;99.90;;;;;;5077501;28;20049;-67
2022/10/17 02:38:34;;;;;;;10.55;6.85;;;12.90;99.90;;;;;;5048999;28;20053;-67
2022/10/17 02:41:00;;;;;;;12.73;7.57;;;12.90;99.90;;;;;;5081817;28;20044;-67
2022/10/17 02:43:27;;;;;;;10.82;6.60;;;12.90;99.90;;;;;;5066087;28;20064;-67
2022/10/17 02:45:54;;;;;;;9.57;7.10;;;12.90;99.90;;;;;;5084491;28;20427;-67
2022/10/17 02:48:19;;;;;;;10.15;7.38;;;12.90;99.90;;;;;;5065564;28;20055;-67
2022/10/17 02:50:53;;;;;;;12.13;7.30;;;12.90;99.90;;;;;;5066863;28;20057;-67
2022/10/17 02:53:33;;;;;;;8.35;7.15;;;12.90;99.90;;;;;;5067395;28;20040;-67
2022/10/17 02:56:05;;;;;;;10.27;7.07;;;12.90;99.90;;;;;;5083783;28;20102;-67
2022/10/17 02:58:33;;;;;;;8.07;7.00;;;12.90;99.90;;;;;;5064835;28;20052;-67
2022/10/17 03:00:59;;;;;;;12.63;7.30;;;12.90;99.90;;;;;;5081891;28;20040;-67
2022/10/17 03:03:28;;;;;;;9.27;7.38;;;12.90;99.90;;;;;;5064921;28;20041;-67
2022/10/17 03:05:54;;;;;;;14.10;7.40;;;13.00;99.90;;;;;;5084625;28;20100;-67
2022/10/17 03:08:20;;;;;;;8.82;7.13;;;13.00;99.90;;;;;;5088287;28;20036;-67
2022/10/17 03:10:46;;;;;;;8.57;7.63;;;12.90;99.90;;;;;;5065971;28;20075;-68
2022/10/17 03:13:13;;;;;;;9.75;7.57;;;12.90;99.90;;;;;;5078416;28;20063;-67
2022/10/17 03:15:39;;;;;;;10.43;7.80;;;12.90;99.90;;;;;;5061742;28;20044;-67
2022/10/17 03:18:04;;;;;;;10.48;8.10;;;12.90;99.90;;;;;;5072004;28;20401;-67
2022/10/17 03:20:30;;;;;;;10.13;7.97;;;12.90;99.90;;;;;;5051902;28;20055;-67
2022/10/17 03:22:56;;;;;;;9.45;8.45;;;12.90;99.90;;;;;;5084071;28;20056;-67
2022/10/17 03:25:21;;;;;;;9.70;7.93;;;12.90;99.90;;;;;;5069804;28;20546;-67
2022/10/17 03:27:47;;;;;;;10.23;7.78;;;12.90;99.90;;;;;;5089697;28;20058;-67
2022/10/17 03:30:13;;;;;;;9.57;7.68;;;12.90;99.90;;;;;;5086507;28;20069;-67
2022/10/17 03:32:38;;;;;;;10.77;9.18;;;12.90;99.90;;;;;;5069721;28;20040;-67
2022/10/17 03:35:04;;;;;;;10.57;8.80;;;12.90;99.90;;;;;;5069201;28;20036;-67
2022/10/17 03:37:30;;;;;;;11.23;9.02;;;12.90;99.90;;;;;;5089507;28;20044;-67
2022/10/17 03:39:56;;;;;;;10.15;9.05;;;12.90;99.90;;;;;;5070337;28;20049;-66
2022/10/17 03:42:21;;;;;;;10.63;9.30;;;12.90;99.90;;;;;;5069681;28;20075;-67
2022/10/17 03:44:47;;;;;;;11.70;9.43;;;13.00;99.90;;;;;;5070390;28;20044;-67
2022/10/17 03:47:13;;;;;;;11.20;9.48;;;13.00;99.90;;;;;;5052623;28;20043;-67
2022/10/17 03:49:38;;;;;;;10.57;9.48;;;12.90;99.90;;;;;;5072308;28;20080;-67
2022/10/17 03:52:04;;;;;;;15.55;10.70;;;12.90;99.90;;;;;;5090761;28;20056;-67
2022/10/17 03:54:30;;;;;;;10.18;9.18;;;13.00;99.90;;;;;;5069826;28;20087;-67
2022/10/17 03:56:55;;;;;;;11.93;10.73;;;13.00;99.90;;;;;;5071185;28;20056;-67
2022/10/17 03:59:21;;;;;;;13.25;10.25;;;13.10;99.90;;;;;;5065877;28;20045;-67
2022/10/17 04:01:47;;;;;;;11.68;10.48;;;13.10;99.90;;;;;;5067811;28;20061;-67
2022/10/17 04:04:13;;;;;;;12.48;10.90;;;13.10;99.90;;;;;;5068461;28;20044;-67
2022/10/17 04:06:38;;;;;;;13.93;10.68;;;13.10;99.90;;;;;;5069475;28;20048;-67
2022/10/17 04:09:06;;;;;;;16.05;11.57;;;13.10;99.90;;;;;;5065943;28;20041;-68
2022/10/17 04:11:31;;;;;;;11.65;10.00;;;13.00;99.90;;;;;;5071133;28;20078;-68
2022/10/17 04:13:58;;;;;;;13.63;10.90;;;13.00;99.90;;;;;;5071091;28;20103;-68
2022/10/17 04:16:24;;;;;;;15.77;10.30;;;13.10;99.90;;;;;;5064459;28;20067;-68
2022/10/17 04:18:55;;;;;;;15.52;10.82;;;13.10;99.90;;;;;;5069528;28;20044;-68
2022/10/17 04:21:22;;;;;;;14.63;11.50;;;13.10;99.90;;;;;;5086669;28;20056;-68
2022/10/17 04:23:48;;;;;;;15.48;11.98;;;13.10;99.90;;;;;;5070974;28;20045;-68
2022/10/17 04:26:14;;;;;;;13.77;10.52;;;13.10;99.90;;;;;;5068953;28;20075;-68
2022/10/17 04:28:39;;;;;;;15.48;11.70;;;13.20;99.90;;;;;;5070554;28;20048;-68
2022/10/17 04:31:08;;;;;;;13.57;11.68;;;13.10;99.90;;;;;;5064962;28;20504;-68
2022/10/17 04:33:34;;;;;;;14.40;12.07;;;13.10;99.90;;;;;;5085224;28;20072;-68
2022/10/17 04:36:02;;;;;;;15.50;11.15;;;13.20;99.90;;;;;;5084625;28;20511;-68
2022/10/17 04:38:29;;;;;;;13.02;11.10;;;13.10;99.90;;;;;;5068504;28;20100;-67
2022/10/17 04:41:02;;;;;;;14.55;12.05;;;13.10;99.90;;;;;;5069125;28;20131;-67
2022/10/17 04:43:33;;;;;;;16.60;13.13;;;13.20;99.90;;;;;;5064917;28;20504;-68
2022/10/17 04:46:00;;;;;;;16.25;12.00;;;13.10;99.90;;;;;;5067231;28;20056;-68
2022/10/17 04:48:27;;;;;;;15.00;12.18;;;13.10;99.90;;;;;;5086407;28;20056;-68
2022/10/17 04:51:09;;;;;;;15.65;12.07;;;13.10;99.90;;;;;;5088251;28;20033;-68
2022/10/17 04:53:36;;;;;;;16.63;13.77;;;13.10;99.90;;;;;;5074456;28;20056;-68
2022/10/17 04:56:08;;;;;;;16.65;12.85;;;13.10;99.90;;;;;;5071175;28;20044;-68
2022/10/17 04:58:34;;;;;;;14.82;12.52;;;13.00;99.90;;;;;;5071045;28;20049;-68
2022/10/17 05:01:07;;;;;;;15.90;12.95;;;13.20;99.90;;;;;;5069349;28;20050;-68
2022/10/17 05:03:33;;;;;;;15.73;13.98;;;13.10;99.90;;;;;;5063035;28;20055;-68
2022/10/17 05:06:13;;;;;;;16.20;13.82;;;13.10;99.90;;;;;;5053271;28;20052;-68
2022/10/17 05:08:39;;;;;;;20.25;13.98;;;13.10;99.90;;;;;;5064678;28;20055;-68
2022/10/17 05:11:13;;;;;;;16.23;13.30;;;13.20;99.90;;;;;;5053202;28;20056;-68
2022/10/17 05:13:39;;;;;;;18.85;14.07;;;13.20;99.90;;;;;;5054097;28;20053;-68
2022/10/17 05:16:05;;;;;;;19.83;14.57;;;13.20;99.90;;;;;;5050981;28;20053;-69
2022/10/17 05:18:30;;;;;;;19.73;14.20;;;13.20;99.90;;;;;;5051221;28;20146;-68
2022/10/17 05:20:56;;;;;;;19.85;15.82;;;13.30;99.90;;;;;;5025801;28;20042;-69
2022/10/17 05:23:23;;;;;;;17.63;14.98;;;13.30;99.90;;;;;;5041114;28;20068;-69
2022/10/17 05:25:54;;;;;;;19.20;14.68;;;13.40;99.90;;;;;;5031250;28;20365;-68
2022/10/17 05:28:19;;;;;;;18.50;15.75;;;13.30;99.90;;;;;;5037068;28;20094;-69
2022/10/17 05:30:45;;;;;;;20.25;16.05;;;13.40;99.90;;;;;;5028812;28;20046;-69
2022/10/17 05:33:11;;;;;;;20.23;15.73;;;13.50;99.90;;;;;;5043938;28;20033;-68
2022/10/17 05:35:36;;;;;;;21.40;16.08;;;13.50;99.90;;;;;;5029220;28;20041;-68
2022/10/17 05:38:02;;;;;;;19.55;16.42;;;13.60;99.90;;;;;;5057146;28;20049;-69
2022/10/17 05:40:28;;;;;;;21.58;16.02;;;13.50;99.90;;;;;;5028534;28;20053;-69
2022/10/17 05:42:53;;;;;;;22.15;17.02;;;13.60;99.90;;;;;;5040130;28;20592;-69
2022/10/17 05:45:19;;;;;;;21.10;16.83;;;13.60;99.90;;;;;;5026388;28;20326;-69
2022/10/17 05:47:45;;;;;;;19.38;16.35;;;13.60;99.90;;;;;;5055734;28;20045;-68
2022/10/17 05:50:10;;;;;;;23.35;16.17;;;13.70;99.90;;;;;;5031007;28;20063;-69
2022/10/17 05:52:36;;;;;;;21.05;17.33;;;13.70;99.90;;;;;;5039153;28;20457;-69
2022/10/17 05:55:03;;;;;;;20.33;15.60;;;13.80;99.90;;;;;;5038951;28;20065;-69
2022/10/17 05:57:29;;;;;;;24.83;16.67;;;13.90;99.90;;;;;;5015704;28;20124;-69
2022/10/17 05:59:55;;;;;;;24.27;16.27;;;14.00;99.90;;;;;;5042118;28;20049;-65
2022/10/17 06:02:20;;;;;;;24.77;16.58;;;14.00;99.90;;;;;;5046077;28;20056;-66
2022/10/17 06:04:48;;;;;;;19.75;16.20;;;14.10;99.90;;;;;;5031211;28;20288;-66
2022/10/17 06:07:15;;;;;;;20.65;16.10;;;14.10;99.90;;;;;;5057628;28;20040;-66
2022/10/17 06:09:40;;;;;;;18.58;15.43;;;14.20;99.90;;;;;;5057232;28;20479;-66
2022/10/17 06:12:06;;;;;;;18.52;15.10;;;14.20;99.90;;;;;;5017578;28;20103;-66
2022/10/17 06:14:32;;;;;;;18.52;15.95;;;14.20;99.90;;;;;;5045408;28;20078;-66
2022/10/17 06:16:58;;;;;;;21.77;16.95;;;14.30;99.90;;;;;;5031143;28;20124;-69
2022/10/17 06:19:24;;;;;;;21.65;16.00;;;14.40;99.90;;;;;;5042047;28;20632;-68
2022/10/17 06:21:49;;;;;;;19.38;15.13;;;14.40;99.90;;;;;;5038732;28;20104;-68
2022/10/17 06:24:15;;;;;;;21.77;15.20;;;14.50;99.90;;;;;;5048131;28;20121;-69
2022/10/17 06:26:42;;;;;;;17.98;16.05;;;14.50;99.90;;;;;;5059190;28;20052;-70
2022/10/17 06:29:08;;;;;;;19.95;15.95;;;14.60;99.90;;;;;;5061984;28;20063;-68
2022/10/17 06:31:33;;;;;;;18.73;15.50;;;14.60;99.90;;;;;;5063108;28;20060;-68
2022/10/17 06:33:59;;;;;;;17.15;15.05;;;14.70;99.90;;;;;;5056295;28;20037;-68
2022/10/17 06:36:25;;;;;;;16.95;14.75;;;14.70;99.90;;;;;;5070208;28;20132;-67
2022/10/17 06:38:50;;;;;;;18.83;14.05;;;14.80;99.90;;;;;;5062005;28;20493;-66
2022/10/17 06:41:18;;;;;;;19.10;13.70;;;14.80;99.90;;;;;;5052335;28;20145;-67
2022/10/17 06:43:47;;;;;;;16.80;13.43;;;14.90;99.90;;;;;;5061519;28;20041;-67
2022/10/17 06:46:15;;;;;;;17.38;13.60;;;14.90;99.90;;;;;;5047199;28;20048;-67
2022/10/17 06:48:41;;;;;;;19.42;13.85;;;14.90;99.90;;;;;;5058904;28;20044;-69
2022/10/17 06:51:10;;;;;;;15.02;12.25;;;15.00;99.90;;;;;;5045444;28;20135;-68
2022/10/17 06:53:37;;;;;;;17.15;13.57;;;14.90;99.90;;;;;;5059349;28;20173;-64
2022/10/17 06:56:04;;;;;;;18.95;13.82;;;15.00;99.90;;;;;;5052243;28;20048;-64
2022/10/17 06:58:33;;;;;;;18.55;14.05;;;15.00;99.90;;;;;;5075493;28;20503;-65
2022/10/17 07:01:04;;;;;;;15.73;12.98;;;15.10;99.90;;;;;;5071583;28;20052;-66
2022/10/17 07:03:30;;;;;;;16.42;12.77;;;15.10;99.90;;;;;;5081074;28;20102;-66
2022/10/17 07:05:56;;;;;;;18.88;13.65;;;15.10;99.90;;;;;;5057903;28;20150;-65
2022/10/17 07:08:22;;;;;;;15.82;13.02;;;15.20;99.90;;;;;;5062826;28;20047;-65
2022/10/17 07:10:49;;;;;;;16.65;13.60;;;15.10;99.90;;;;;;5037860;28;20052;-65
2022/10/17 07:13:15;;;;;;;17.67;12.68;;;15.20;99.90;;;;;;5064493;28;20048;-65
2022/10/17 07:15:41;;;;;;;15.45;12.38;;;15.20;99.90;;;;;;5053232;28;20080;-65
2022/10/17 07:18:07;;;;;;;19.13;12.68;;;15.40;99.90;;;;;;5079429;28;20045;-65
2022/10/17 07:20:33;;;;;;;18.90;12.73;;;15.30;99.90;;;;;;5053714;28;20041;-65
2022/10/17 07:22:58;;;;;;;15.73;11.65;;;15.50;99.90;;;;;;5057583;28;20053;-66
2022/10/17 07:25:24;;;;;;;14.75;12.13;;;15.50;99.90;;;;;;5061926;28;20485;-65
2022/10/17 07:27:51;;;;;;;13.35;11.95;;;15.50;99.90;;;;;;5070780;28;20341;-65
2022/10/17 07:30:18;;;;;;;20.98;12.73;;;15.60;99.90;;;;;;5062189;28;20102;-65
2022/10/17 07:32:44;;;;;;;14.35;11.80;;;15.50;99.90;;;;;;5071547;28;20059;-65
2022/10/17 07:35:11;;;;;;;17.25;12.98;;;15.60;99.90;;;;;;5064202;28;20037;-65
2022/10/17 07:37:37;;;;;;;14.60;12.18;;;15.60;99.90;;;;;;5051774;28;20380;-65
2022/10/17 07:40:05;;;;;;;15.25;11.73;;;15.60;99.90;;;;;;5078948;28;20059;-64
2022/10/17 07:42:31;;;;;;;12.93;11.35;;;15.60;99.90;;;;;;5050828;28;20044;-64
2022/10/17 07:44:57;;;;;;;16.90;11.45;;;15.70;99.90;;;;;;5079365;28;20075;-64
2022/10/17 07:47:22;;;;;;;20.63;11.85;;;15.70;99.90;;;;;;5052417;28;20048;-64
2022/10/17 07:49:48;;;;;;;14.82;11.82;;;15.80;99.90;;;;;;5061396;28;20078;-65
2022/10/17 07:52:15;;;;;;;16.63;11.07;;;15.90;99.90;;;;;;5056540;28;20044;-65
2022/10/17 07:54:41;;;;;;;17.25;12.13;;;16.00;99.90;;;;;;5063917;28;20507;-64
2022/10/17 07:57:07;;;;;;;14.73;10.27;;;16.10;99.90;;;;;;5051034;28;20045;-64
2022/10/17 07:59:35;;;;;;;14.45;10.50;;;16.10;99.90;;;;;;5079557;28;20051;-64
2022/10/17 08:02:01;;;;;;;16.10;11.05;;;16.20;99.90;;;;;;5053327;28;20060;-65
2022/10/17 08:04:28;;;;;;;13.73;10.77;;;16.20;99.90;;;;;;5059099;28;20045;-64
2022/10/17 08:06:53;;;;;;;14.07;9.90;;;16.40;99.90;;;;;;5045805;28;20055;-64
2022/10/17 08:09:20;;;;;;;12.27;10.10;;;16.40;99.90;;;;;;5060998;28;20044;-65
2022/10/17 08:11:45;;;;;;;18.27;10.48;;;16.60;99.90;;;;;;5049632;28;20048;-65
2022/10/17 08:14:12;;;;;;;13.10;9.60;;;16.70;99.90;;;;;;5071290;28;20079;-64
2022/10/17 08:16:39;;;;;;;13.38;9.07;;;16.70;99.90;;;;;;5036218;28;20120;-64
2022/10/17 08:19:07;;;;;;;14.30;9.55;;;16.80;99.90;;;;;;5059030;28;20053;-64
2022/10/17 08:21:34;;;;;;;13.48;8.98;;;16.70;99.90;;;;;;5039542;28;20396;-64
2022/10/17 08:24:01;;;;;;;13.57;8.88;;;16.80;99.90;;;;;;5076369;28;20044;-64
2022/10/17 08:26:27;;;;;;;11.43;9.20;;;16.90;99.90;;;;;;5067364;28;20056;-64
2022/10/17 08:28:53;;;;;;;13.95;10.10;;;16.90;99.90;;;;;;5061158;28;20039;-64
2022/10/17 08:31:19;;;;;;;13.35;9.10;;;17.00;99.90;;;;;;5051669;28;20179;-64
2022/10/17 08:33:47;;;;;;;13.43;9.63;;;17.00;99.90;;;;;;5078587;28;20041;-65
2022/10/17 08:36:14;;;;;;;11.18;9.13;;;17.10;99.90;;;;;;5067175;28;20078;-64
2022/10/17 08:38:42;;;;;;;14.15;9.77;;;17.10;99.90;;;;;;5074969;28;20112;-64
2022/10/17 08:41:26;;;;;;;11.20;9.52;;;17.10;99.90;;;;;;5051946;28;20537;-64
2022/10/17 08:44:18;;;;;;;15.60;10.32;;;17.10;99.90;;;;;;5081210;28;20040;-64
2022/10/17 08:46:47;;;;;;;15.18;9.23;;;16.90;99.90;;;;;;5068014;28;20229;-64
2022/10/17 08:49:26;;;;;;;11.20;9.52;;;16.90;99.90;;;;;;5072220;28;20052;-65
2022/10/17 08:52:01;;;;;;;12.13;9.70;;;16.90;99.90;;;;;;5050990;28;20083;-64
2022/10/17 08:54:41;;;;;;;13.07;9.23;;;16.80;99.90;;;;;;5076362;28;20095;-65
2022/10/17 08:57:12;;;;;;;12.48;9.88;;;16.90;99.90;;;;;;5067371;28;20452;-64
2022/10/17 08:59:38;;;;;;;14.27;9.90;;;16.90;99.90;;;;;;5076706;28;20040;-65
2022/10/17 09:02:37;;;;;;;13.05;9.77;;;17.00;99.90;;;;;;5050666;28;20136;-65
2022/10/17 09:05:40;;;;;;;11.23;9.43;;;16.90;99.90;;;;;;5044878;28;20053;-65
2022/10/17 09:08:15;;;;;;;13.15;9.50;;;16.90;99.90;;;;;;5062635;28;20052;-65
2022/10/17 09:11:03;;;;;;;12.15;9.40;;;17.00;99.90;;;;;;5061472;28;20072;-65
2022/10/17 09:14:03;;;;;;;13.55;9.75;;;17.00;99.90;;;;;;5033970;28;20062;-64
2022/10/17 09:16:31;;;;;;;12.68;9.65;;;17.10;99.90;;;;;;5049136;28;20084;-64
2022/10/17 09:19:03;;;;;;;13.27;9.80;;;17.10;99.90;;;;;;5076522;28;20048;-65
2022/10/17 09:21:43;;;;;;;12.40;9.38;;;17.00;99.90;;;;;;5050419;28;20060;-64
2022/10/17 09:25:02;;;;;;;14.02;10.00;;;17.00;99.90;;;;;;5076874;28;20048;-64
2022/10/17 09:27:53;;;;;;;12.93;10.15;;;17.10;99.90;;;;;;4973119;28;20096;-64
2022/10/17 09:30:19;;;;;;;15.13;10.60;;;17.10;99.90;;;;;;4992217;28;20041;-64
2022/10/17 09:32:46;;;;;;;14.38;10.52;;;17.00;99.90;;;;;;4996246;28;20064;-64
2022/10/17 09:35:13;;;;;;;15.13;10.55;;;17.00;99.90;;;;;;5014156;28;20060;-63
2022/10/17 09:37:40;;;;;;;12.75;10.00;;;17.20;99.90;;;;;;4987925;28;20724;-63
2022/10/17 09:40:11;;;;;;;15.27;9.57;;;17.20;99.90;;;;;;4992907;28;20074;-65
2022/10/17 09:42:38;;;;;;;12.60;9.73;;;17.30;99.90;;;;;;4987019;28;20521;-69
2022/10/17 09:45:25;;;;;;;13.02;9.55;;;17.30;99.90;;;;;;4997748;28;20058;-65
2022/10/17 09:48:05;;;;;;;12.02;9.90;;;17.20;99.90;;;;;;4986342;28;20054;-65
2022/10/17 09:50:33;;;;;;;14.50;10.13;;;17.20;99.90;;;;;;5014429;28;20085;-64
2022/10/17 09:53:07;;;;;;;13.57;9.23;;;17.20;99.90;;;;;;4987838;28;20612;-64
2022/10/17 09:55:49;;;;;;;13.18;9.40;;;17.10;99.90;;;;;;5005119;28;20088;-64
2022/10/17 09:58:15;;;;;;;12.77;10.20;;;17.20;99.90;;;;;;4979301;28;20058;-64
2022/10/17 10:00:44;;;;;;;13.88;9.57;;;17.20;99.90;;;;;;4991360;28;20058;-64
2022/10/17 10:03:15;;;;;;;15.85;10.55;;;17.20;99.90;;;;;;4987831;28;20048;-64
2022/10/17 10:05:56;;;;;;;13.45;9.90;;;17.20;99.90;;;;;;5068663;28;20509;-65
2022/10/17 10:08:24;;;;;;;14.73;10.65;;;17.10;99.90;;;;;;5064733;28;20076;-64
2022/10/17 10:10:58;;;;;;;16.40;10.65;;;17.10;99.90;;;;;;5051117;28;20076;-64
2022/10/17 10:13:26;;;;;;;14.20;10.40;;;17.00;99.90;;;;;;5045289;28;20049;-64
2022/10/17 10:15:52;;;;;;;16.25;10.88;;;17.00;99.90;;;;;;5050587;28;20044;-64
2022/10/17 10:18:24;;;;;;;18.20;11.25;;;17.00;99.90;;;;;;5046672;28;20058;-64
2022/10/17 10:21:14;;;;;;;17.05;11.38;;;16.80;99.90;;;;;;5054826;28;20045;-64
2022/10/17 10:23:42;;;;;;;16.52;11.90;;;16.70;99.90;;;;;;5047828;28;20044;-64
2022/10/17 10:26:28;;;;;;;17.05;12.70;;;16.70;99.90;;;;;;5048667;28;20511;-65
2022/10/17 10:29:29;;;;;;;21.27;12.35;;;16.70;99.90;;;;;;5067915;28;20044;-64
2022/10/17 10:31:57;;;;;;;15.38;11.75;;;16.80;99.90;;;;;;5039239;28;20583;-64
2022/10/17 10:34:27;;;;;;;17.13;13.55;;;16.60;99.90;;;;;;5058839;28;20040;-64
2022/10/17 10:36:57;;;;;;;;;;;16.50;99.90;;;;;;5049173;28;20575;-64
2022/10/17 10:39:55;;;;;;;14.98;11.73;;;16.60;99.90;;;;;;5051405;28;19925;-64
2022/10/17 10:42:29;;;;;;;23.27;13.18;;;16.50;99.90;;;;;;5058024;28;20056;-65
2022/10/17 10:45:00;;;;;;;15.38;13.35;;;16.60;99.90;;;;;;5056392;28;20040;-65
2022/10/17 10:47:30;;;;;;;21.23;14.07;;;16.50;99.90;;;;;;5059099;28;20523;-64
2022/10/17 10:50:25;;;;;;;;;;;16.50;99.90;;;;;;5058416;28;20079;-64
2022/10/17 10:52:57;;;;;;;19.60;13.05;;;16.50;99.90;;;;;;5048687;28;19924;-64
2022/10/17 10:55:31;;;;;;;15.77;12.45;;;16.50;99.90;;;;;;5047973;28;20044;-64
2022/10/17 10:58:02;;;;;;;24.23;14.48;;;16.50;99.90;;;;;;5047188;28;20082;-64
2022/10/17 11:00:30;;;;;;;22.35;14.93;;;16.30;99.90;;;;;;5050941;28;20114;-69
2022/10/17 11:02:56;;;;;;;24.48;16.08;;;16.50;99.90;;;;;;5062305;28;20056;-68
2022/10/17 11:05:45;;;;;;;20.85;15.13;;;16.40;99.90;;;;;;5042890;28;20076;-68
2022/10/17 11:08:22;;;;;;;22.98;15.43;;;16.40;99.90;;;;;;5046919;28;20072;-69
2022/10/17 11:11:22;;;;;;;18.77;14.30;;;16.30;99.90;;;;;;5058613;28;20059;-68
2022/10/17 11:14:00;;;;;;;20.65;15.18;;;16.50;99.90;;;;;;5032284;28;20048;-68
2022/10/17 11:16:49;;;;;;;17.98;14.57;;;16.50;99.90;;;;;;5046944;28;20646;-68
2022/10/17 11:19:32;;;;;;;17.45;14.32;;;16.50;99.90;;;;;;5046060;28;20076;-68
2022/10/17 11:22:26;;;;;;;21.13;14.52;;;16.40;99.90;;;;;;5049129;28;20066;-68
2022/10/17 11:25:18;;;;;;;19.55;13.52;;;16.50;99.90;;;;;;5056337;28;20048;-68
2022/10/17 11:27:44;;;;;;;20.77;13.57;;;16.60;99.90;;;;;;4998584;28;20058;-68
2022/10/17 11:30:16;;;;;;;19.55;14.80;;;16.50;99.90;;;;;;4998552;28;20064;-68
2022/10/17 11:32:44;;;;;;;19.50;14.35;;;16.60;99.90;;;;;;4986542;28;20053;-68
2022/10/17 11:35:22;;;;;;;16.58;13.75;;;16.60;99.90;;;;;;5006568;28;20052;-68
2022/10/17 11:38:17;;;;;;;19.40;13.07;;;16.60;99.90;;;;;;5002747;28;20256;-68
2022/10/17 11:40:50;;;;;;;18.73;14.23;;;16.70;99.90;;;;;;4972224;28;20116;-68
2022/10/17 11:43:30;;;;;;;20.85;13.48;;;16.60;99.90;;;;;;4987604;28;20060;-67
2022/10/17 11:46:09;;;;;;;18.65;13.63;;;16.50;99.90;;;;;;5001930;28;20066;-67
2022/10/17 11:48:51;;;;;;;18.60;14.43;;;16.50;99.90;;;;;;4997086;28;20421;-68
2022/10/17 11:51:17;;;;;;;19.52;13.68;;;16.60;99.90;;;;;;4998828;28;20068;-67
2022/10/17 11:53:56;;;;;;;18.67;13.98;;;16.50;99.90;;;;;;4973215;28;20050;-67
2022/10/17 11:56:48;;;;;;;19.00;13.70;;;16.60;99.90;;;;;;4976609;28;20057;-67
2022/10/17 11:59:41;;;;;;;19.65;14.48;;;16.60;99.90;;;;;;4998106;28;20310;-66
2022/10/17 12:02:20;;;;;;;20.50;12.80;;;16.50;99.90;;;;;;4984306;28;20046;-65
2022/10/17 12:05:01;;;;;;;17.58;13.25;;;16.70;99.90;;;;;;5034981;28;20245;-68
2022/10/17 12:07:34;;;;;;;17.13;12.95;;;16.60;99.90;;;;;;5036120;28;20049;-67
2022/10/17 12:10:28;;;;;;;21.48;14.77;;;16.60;99.90;;;;;;5054369;28;20041;-67
2022/10/17 12:12:54;;;;;;;16.65;13.25;;;16.70;99.90;;;;;;5060110;28;20110;-67
2022/10/17 12:15:22;;;;;;;16.02;13.68;;;16.60;99.90;;;;;;5046815;28;20049;-68
2022/10/17 12:18:01;;;;;;;18.20;13.35;;;16.60;99.90;;;;;;5062959;28;20056;-68
2022/10/17 12:20:33;;;;;;;17.10;14.00;;;16.60;99.90;;;;;;5062065;28;20118;-68
2022/10/17 12:23:11;;;;;;;19.15;13.65;;;16.60;99.90;;;;;;5059031;28;20049;-68
2022/10/17 12:26:00;;;;;;;20.20;13.52;;;16.60;99.90;;;;;;5069774;28;20498;-68
2022/10/17 12:28:44;;;;;;;17.42;13.50;;;16.50;99.90;;;;;;5037183;28;20055;-68
2022/10/17 12:31:16;;;;;;;14.70;12.48;;;16.60;99.90;;;;;;5041478;28;20108;-67
2022/10/17 12:33:45;;;;;;;14.55;11.90;;;16.50;99.90;;;;;;5048708;28;20049;-68
2022/10/17 12:36:25;;;;;;;16.60;12.05;;;16.50;99.90;;;;;;5056872;28;20037;-68
2022/10/17 12:39:13;;;;;;;17.45;12.23;;;16.50;99.90;;;;;;5034178;28;20059;-68
2022/10/17 12:41:39;;;;;;;17.10;12.77;;;16.50;99.90;;;;;;5043843;28;20040;-66
2022/10/17 12:44:14;;;;;;;15.43;11.88;;;16.60;99.90;;;;;;5027269;28;20086;-65
2022/10/17 12:47:17;;;;;;;14.40;11.43;;;16.60;99.90;;;;;;5028324;28;20065;-66
2022/10/17 12:49:50;;;;;;;16.00;11.27;;;16.70;99.90;;;;;;5057131;28;20037;-66
2022/10/17 12:52:18;;;;;;;14.25;11.32;;;16.90;99.90;;;;;;5066926;28;20079;-64
2022/10/17 12:54:52;;;;;;;15.35;11.13;;;16.80;99.90;;;;;;5079235;28;20036;-65
2022/10/17 12:57:30;;;;;;;14.13;12.40;;;16.80;99.90;;;;;;5052764;28;20068;-65